createdAt,value
2022-11-27T00:02:08.664Z,9.43
2022-11-27T00:04:35.362Z,8.63
2022-11-27T00:07:02.046Z,9.00
2022-11-27T00:09:28.781Z,8.68
2022-11-27T00:11:55.461Z,9.37
2022-11-27T00:14:23.462Z,8.98
2022-11-27T00:16:50.250Z,10.00
2022-11-27T00:19:16.935Z,8.48
2022-11-27T00:21:43.602Z,8.68
2022-11-27T00:24:11.676Z,8.73
2022-11-27T00:26:38.672Z,8.63
2022-11-27T00:29:05.698Z,8.18
2022-11-27T00:31:35.152Z,8.57
2022-11-27T00:34:03.750Z,7.93
2022-11-27T00:36:32.693Z,7.73
2022-11-27T00:39:00.077Z,8.52
2022-11-27T00:41:29.150Z,8.32
2022-11-27T00:43:56.808Z,9.07
2022-11-27T00:46:28.761Z,9.60
2022-11-27T00:48:57.528Z,8.40
2022-11-27T00:51:25.270Z,9.18
2022-11-27T00:53:52.668Z,9.00
2022-11-27T00:56:21.855Z,8.70
2022-11-27T00:58:48.800Z,8.30
2022-11-27T01:01:18.000Z,9.37
2022-11-27T01:03:45.146Z,8.77
2022-11-27T01:06:13.976Z,8.50
2022-11-27T01:08:41.349Z,9.02
2022-11-27T01:11:13.011Z,7.90
2022-11-27T01:13:39.684Z,7.57
2022-11-27T01:16:08.357Z,7.57
2022-11-27T01:18:36.237Z,6.72
2022-11-27T01:21:04.198Z,7.43
2022-11-27T01:23:32.777Z,7.50
2022-11-27T01:26:00.800Z,6.73
2022-11-27T01:28:27.439Z,6.50
2022-11-27T01:30:54.881Z,6.88
2022-11-27T01:33:21.595Z,6.80
2022-11-27T01:35:56.200Z,6.97
2022-11-27T01:38:23.463Z,7.23
2022-11-27T01:40:56.895Z,7.15
2022-11-27T01:43:37.385Z,6.75
2022-11-27T01:46:04.704Z,6.85
2022-11-27T01:48:31.798Z,6.68
2022-11-27T01:50:58.503Z,7.33
2022-11-27T01:53:25.817Z,6.60
2022-11-27T01:55:57.765Z,7.57
2022-11-27T01:58:27.622Z,7.57
2022-11-27T02:00:54.313Z,7.55
2022-11-27T02:03:21.570Z,7.17
2022-11-27T02:05:48.365Z,7.13
2022-11-27T02:08:16.780Z,7.60
2022-11-27T02:10:49.061Z,8.32
2022-11-27T02:13:23.503Z,8.80
2022-11-27T02:15:55.996Z,8.90
2022-11-27T02:18:30.568Z,7.25
2022-11-27T02:21:04.820Z,8.05
2022-11-27T02:24:21.907Z,7.50
2022-11-27T02:27:18.017Z,8.50
2022-11-27T02:29:48.168Z,7.73
2022-11-27T02:32:21.550Z,8.13
2022-11-27T02:34:53.981Z,8.48
2022-11-27T02:37:26.442Z,9.07
2022-11-27T02:39:59.410Z,7.75
2022-11-27T02:42:29.812Z,8.77
2022-11-27T02:45:02.482Z,8.32
2022-11-27T02:47:30.873Z,7.63
2022-11-27T02:49:59.355Z,8.45
2022-11-27T02:52:28.523Z,7.95
2022-11-27T02:54:59.465Z,8.97
2022-11-27T02:57:27.693Z,8.40
2022-11-27T02:59:56.779Z,8.52
2022-11-27T03:02:29.225Z,8.68
2022-11-27T03:04:58.981Z,8.70
2022-11-27T03:07:32.133Z,8.03
2022-11-27T03:10:03.287Z,8.60
2022-11-27T03:12:30.033Z,8.10
2022-11-27T03:14:56.972Z,8.90
2022-11-27T03:17:37.539Z,8.40
2022-11-27T03:20:10.916Z,8.50
2022-11-27T03:22:37.683Z,7.53
2022-11-27T03:25:04.972Z,7.65
2022-11-27T03:27:35.535Z,7.60
2022-11-27T03:30:05.774Z,7.78
2022-11-27T03:32:34.427Z,8.00
2022-11-27T03:35:01.601Z,7.47
2022-11-27T03:37:28.629Z,6.80
2022-11-27T03:39:55.415Z,6.30
2022-11-27T03:42:27.737Z,6.90
2022-11-27T03:45:01.377Z,7.20
2022-11-27T03:47:41.150Z,6.68
2022-11-27T03:50:24.904Z,6.70
2022-11-27T03:53:00.700Z,6.28
2022-11-27T03:55:34.704Z,6.05
2022-11-27T03:58:05.056Z,5.40
2022-11-27T04:00:36.990Z,5.72
2022-11-27T04:03:05.430Z,6.03
2022-11-27T04:05:32.136Z,5.78
2022-11-27T04:07:58.885Z,5.43
2022-11-27T04:10:25.669Z,5.70
2022-11-27T04:12:52.411Z,6.15
2022-11-27T04:15:19.116Z,6.10
2022-11-27T04:17:45.943Z,6.15
2022-11-27T04:20:15.416Z,6.35
2022-11-27T04:22:42.135Z,7.20
2022-11-27T04:25:10.122Z,5.88
2022-11-27T04:27:36.829Z,6.75
2022-11-27T04:30:04.667Z,6.38
2022-11-27T04:32:31.368Z,6.43
2022-11-27T04:34:58.053Z,6.73
2022-11-27T04:37:26.222Z,6.18
2022-11-27T04:39:52.994Z,6.43
2022-11-27T04:42:19.703Z,5.78
2022-11-27T04:44:46.359Z,5.78
2022-11-27T04:47:13.095Z,6.00
2022-11-27T04:49:39.811Z,5.88
2022-11-27T04:52:06.542Z,5.18
2022-11-27T04:54:34.681Z,5.32
2022-11-27T04:57:01.430Z,5.65
2022-11-27T04:59:28.190Z,5.90
2022-11-27T05:01:54.947Z,5.20
2022-11-27T05:04:22.372Z,4.70
2022-11-27T05:06:49.246Z,5.40
2022-11-27T05:09:17.126Z,5.05
2022-11-27T05:11:45.373Z,5.03
2022-11-27T05:14:12.095Z,5.07
2022-11-27T05:16:38.888Z,5.03
2022-11-27T05:19:05.643Z,5.47
2022-11-27T05:21:32.330Z,5.20
2022-11-27T05:23:59.011Z,5.00
2022-11-27T05:26:25.721Z,4.93
2022-11-27T05:28:53.955Z,4.70
2022-11-27T05:31:20.814Z,4.40
2022-11-27T05:33:47.624Z,5.28
2022-11-27T05:36:14.471Z,4.50
2022-11-27T05:38:41.791Z,4.55
2022-11-27T05:41:08.534Z,4.40
2022-11-27T05:43:35.223Z,3.85
2022-11-27T05:46:06.526Z,3.75
2022-11-27T05:48:33.596Z,4.50
2022-11-27T05:51:00.908Z,4.68
2022-11-27T05:53:27.921Z,4.15
2022-11-27T05:55:54.752Z,4.57
2022-11-27T05:58:21.551Z,4.35
2022-11-27T06:00:48.292Z,5.03
2022-11-27T06:03:16.501Z,4.82
2022-11-27T06:05:43.283Z,4.88
2022-11-27T06:08:09.942Z,5.10
2022-11-27T06:10:38.993Z,4.28
2022-11-27T06:13:06.039Z,4.47
2022-11-27T06:15:32.868Z,4.07
2022-11-27T06:17:59.598Z,4.22
2022-11-27T06:20:27.660Z,4.28
2022-11-27T06:22:55.481Z,4.50
2022-11-27T06:25:22.429Z,4.70
2022-11-27T06:27:49.617Z,4.57
2022-11-27T06:30:16.885Z,4.35
2022-11-27T06:32:43.667Z,4.40
2022-11-27T06:35:10.426Z,3.97
2022-11-27T06:37:38.594Z,4.10
2022-11-27T06:40:06.837Z,4.80
2022-11-27T06:42:33.537Z,4.50
2022-11-27T06:45:00.277Z,4.35
2022-11-27T06:47:27.017Z,4.63
2022-11-27T06:49:53.653Z,4.63
2022-11-27T06:52:20.433Z,5.35
2022-11-27T06:54:48.492Z,4.60
2022-11-27T06:57:15.208Z,4.07
2022-11-27T06:59:41.903Z,6.32
2022-11-27T07:02:13.974Z,4.30
2022-11-27T07:04:40.976Z,4.40
2022-11-27T07:07:07.808Z,5.57
2022-11-27T07:09:34.482Z,4.25
2022-11-27T07:12:04.252Z,4.57
2022-11-27T07:14:32.138Z,3.83
2022-11-27T07:16:58.952Z,4.40
2022-11-27T07:19:25.795Z,3.80
2022-11-27T07:21:52.453Z,4.90
2022-11-27T07:24:19.182Z,4.63
2022-11-27T07:26:45.877Z,4.97
2022-11-27T07:29:13.990Z,4.82
2022-11-27T07:31:40.920Z,4.45
2022-11-27T07:34:14.092Z,4.28
2022-11-27T07:36:42.807Z,4.65
2022-11-27T07:39:09.490Z,5.20
2022-11-27T07:41:36.408Z,4.38
2022-11-27T07:44:03.422Z,5.03
2022-11-27T07:46:31.474Z,4.05
2022-11-27T07:48:58.385Z,4.25
2022-11-27T07:51:25.055Z,5.40
2022-11-27T07:53:51.864Z,4.78
2022-11-27T07:56:19.822Z,4.85
2022-11-27T07:58:46.934Z,4.57
2022-11-27T08:01:15.408Z,5.43
2022-11-27T08:03:43.650Z,4.87
2022-11-27T08:06:15.531Z,4.95
2022-11-27T08:08:42.278Z,7.93
2022-11-27T08:11:15.886Z,5.20
2022-11-27T08:13:42.630Z,4.03
2022-11-27T08:16:09.615Z,4.67
2022-11-27T08:18:36.425Z,4.78
2022-11-27T08:21:04.590Z,5.05
2022-11-27T08:23:31.343Z,4.65
2022-11-27T08:25:58.009Z,4.10
2022-11-27T08:28:24.723Z,4.53
2022-11-27T08:30:56.634Z,5.28
2022-11-27T08:33:23.364Z,4.07
2022-11-27T08:35:50.330Z,3.78
2022-11-27T08:38:18.664Z,4.40
2022-11-27T08:40:45.359Z,4.10
2022-11-27T08:43:12.064Z,3.40
2022-11-27T08:45:39.632Z,3.25
2022-11-27T08:48:07.007Z,3.30
2022-11-27T08:50:33.780Z,3.33
2022-11-27T08:53:00.460Z,3.00
2022-11-27T08:55:28.511Z,3.88
2022-11-27T08:57:55.250Z,4.80
2022-11-27T09:00:27.587Z,5.38
2022-11-27T09:02:54.759Z,6.03
2022-11-27T09:05:21.583Z,5.43
2022-11-27T09:07:50.689Z,5.63
2022-11-27T09:10:17.594Z,5.28
2022-11-27T09:12:45.933Z,5.78
2022-11-27T09:15:13.335Z,5.50
2022-11-27T09:17:40.224Z,5.67
2022-11-27T09:20:07.817Z,5.82
2022-11-27T09:22:34.998Z,7.20
2022-11-27T09:25:02.274Z,8.02
2022-11-27T09:27:29.215Z,8.82
2022-11-27T09:29:57.338Z,8.43
2022-11-27T09:32:24.165Z,6.80
2022-11-27T09:34:51.671Z,7.85
2022-11-27T09:37:18.442Z,7.88
2022-11-27T09:39:45.151Z,7.82
2022-11-27T09:42:19.937Z,8.50
2022-11-27T09:44:53.813Z,8.07
2022-11-27T09:47:41.048Z,8.25
2022-11-27T09:50:13.768Z,7.72
2022-11-27T09:52:42.877Z,7.40
2022-11-27T09:55:15.074Z,10.13
2022-11-27T09:57:42.747Z,9.00
2022-11-27T10:00:14.507Z,9.25
2022-11-27T10:02:43.434Z,8.60
2022-11-27T10:05:17.465Z,9.13
2022-11-27T10:08:09.283Z,9.63
2022-11-27T10:10:40.750Z,9.52
2022-11-27T10:13:27.456Z,10.45
2022-11-27T10:15:56.939Z,11.23
2022-11-27T10:18:32.216Z,9.70
2022-11-27T10:21:04.295Z,8.67
2022-11-27T10:23:42.537Z,7.63
2022-11-27T10:26:18.317Z,7.28
2022-11-27T10:28:52.177Z,7.25
2022-11-27T10:31:27.818Z,7.18
2022-11-27T10:33:59.295Z,7.47
2022-11-27T10:36:30.851Z,7.20
2022-11-27T10:39:00.402Z,7.40
2022-11-27T10:41:49.755Z,7.30
2022-11-27T10:44:28.529Z,6.70
2022-11-27T10:46:59.249Z,7.77
2022-11-27T10:49:27.328Z,7.93
2022-11-27T10:51:54.090Z,7.57
2022-11-27T10:54:26.163Z,7.32
2022-11-27T10:57:31.246Z,8.30
2022-11-27T11:00:06.234Z,7.70
2022-11-27T11:02:34.704Z,7.93
2022-11-27T11:08:16.923Z,7.75
2022-11-27T11:10:49.721Z,7.72
2022-11-27T11:13:18.922Z,7.80
2022-11-27T11:15:54.386Z,8.55
2022-11-27T11:18:23.120Z,6.82
2022-11-27T11:20:54.046Z,7.75
2022-11-27T11:23:25.073Z,8.07
2022-11-27T11:25:54.589Z,9.52
2022-11-27T11:28:23.570Z,7.60
2022-11-27T11:30:57.344Z,7.70
2022-11-27T11:33:25.481Z,8.25
2022-11-27T11:35:55.246Z,7.90
2022-11-27T11:38:29.355Z,7.53
2022-11-27T11:41:00.772Z,7.43
2022-11-27T11:43:29.843Z,7.05
2022-11-27T11:46:05.175Z,7.28
2022-11-27T11:48:31.930Z,7.85
2022-11-27T11:51:03.379Z,7.68
2022-11-27T11:53:36.017Z,8.13
2022-11-27T11:56:15.569Z,11.23
2022-11-27T11:58:56.056Z,10.38
2022-11-27T12:01:45.974Z,7.70
2022-11-27T12:04:40.735Z,8.40
2022-11-27T12:07:20.565Z,6.57
2022-11-27T12:09:55.049Z,6.40
2022-11-27T12:12:35.534Z,9.63
2022-11-27T12:15:09.638Z,9.90
2022-11-27T12:17:48.423Z,9.63
2022-11-27T12:20:21.061Z,9.75
2022-11-27T12:23:24.195Z,8.93
2022-11-27T12:25:59.104Z,8.50
2022-11-27T12:28:44.857Z,7.45
2022-11-27T12:31:23.632Z,7.28
2022-11-27T12:34:02.094Z,6.90
2022-11-27T12:36:42.786Z,6.80
2022-11-27T12:39:24.020Z,6.53
2022-11-27T12:42:01.570Z,6.65
2022-11-27T12:44:36.504Z,6.70
2022-11-27T12:47:08.265Z,6.80
2022-11-27T12:49:41.438Z,6.50
2022-11-27T12:52:13.938Z,6.53
2022-11-27T12:54:46.624Z,6.38
2022-11-27T12:57:17.368Z,6.60
2022-11-27T12:59:48.994Z,6.63
2022-11-27T13:02:26.811Z,6.63
2022-11-27T13:04:59.496Z,5.72
2022-11-27T13:07:30.968Z,6.30
2022-11-27T13:10:05.677Z,11.57
2022-11-27T13:12:37.056Z,18.90
2022-11-27T13:15:08.803Z,13.75
2022-11-27T13:17:41.216Z,9.35
2022-11-27T13:20:15.368Z,10.43
2022-11-27T13:22:43.082Z,12.88
2022-11-27T13:25:13.182Z,9.13
2022-11-27T13:27:43.039Z,8.65
2022-11-27T13:30:20.164Z,9.30
2022-11-27T13:32:50.912Z,7.72
2022-11-27T13:35:21.850Z,8.55
2022-11-27T13:37:56.222Z,7.05
2022-11-27T13:40:29.179Z,6.20
2022-11-27T13:42:58.474Z,5.88
2022-11-27T13:45:28.325Z,5.70
2022-11-27T13:47:57.029Z,5.10
2022-11-27T13:50:29.662Z,5.20
2022-11-27T13:53:00.345Z,7.20
2022-11-27T13:55:30.844Z,6.88
2022-11-27T13:57:59.394Z,6.28
2022-11-27T14:00:35.468Z,6.25
2022-11-27T14:03:03.112Z,5.63
2022-11-27T14:05:39.251Z,5.13
2022-11-27T14:08:17.732Z,4.65
2022-11-27T14:10:53.497Z,5.07
2022-11-27T14:13:24.855Z,6.50
2022-11-27T14:16:02.187Z,5.28
2022-11-27T14:18:30.792Z,5.63
2022-11-27T14:21:00.764Z,6.38
2022-11-27T14:23:29.917Z,4.78
2022-11-27T14:26:11.855Z,4.47
2022-11-27T14:28:43.715Z,4.75
2022-11-27T14:31:25.668Z,4.60
2022-11-27T14:34:14.085Z,4.40
2022-11-27T14:36:39.274Z,4.05
2022-11-27T14:39:05.934Z,4.60
2022-11-27T14:41:34.171Z,4.43
2022-11-27T14:44:01.451Z,4.05
2022-11-27T14:46:30.518Z,4.30
2022-11-27T14:48:57.288Z,4.28
2022-11-27T14:51:26.104Z,4.13
2022-11-27T14:53:58.550Z,3.85
2022-11-27T14:56:27.199Z,4.30
2022-11-27T14:58:55.921Z,3.85
2022-11-27T15:01:25.961Z,4.03
2022-11-27T15:03:57.518Z,4.15
2022-11-27T15:06:25.261Z,4.38
2022-11-27T15:09:15.845Z,4.38
2022-11-27T15:11:55.127Z,5.25
2022-11-27T15:14:25.908Z,9.40
2022-11-27T15:16:53.656Z,7.00
2022-11-27T15:19:27.160Z,5.38
2022-11-27T15:21:54.257Z,5.05
2022-11-27T15:24:30.164Z,4.78
2022-11-27T15:27:07.865Z,4.40
2022-11-27T15:29:37.616Z,4.72
2022-11-27T15:32:21.857Z,4.32
2022-11-27T15:34:50.669Z,4.10
2022-11-27T15:37:22.917Z,4.05
2022-11-27T15:39:51.274Z,3.92
2022-11-27T15:42:18.756Z,4.45
2022-11-27T15:44:47.851Z,4.07
2022-11-27T15:47:23.235Z,4.80
2022-11-27T15:49:50.208Z,5.13
2022-11-27T15:52:16.926Z,4.80
2022-11-27T15:54:43.842Z,6.05
2022-11-27T15:57:10.809Z,4.75
2022-11-27T15:59:37.714Z,4.72
2022-11-27T16:02:06.151Z,4.95
2022-11-27T16:04:33.043Z,4.38
2022-11-27T16:06:59.951Z,4.57
2022-11-27T16:09:26.680Z,4.70
2022-11-27T16:11:53.755Z,5.20
2022-11-27T16:14:20.490Z,4.63
2022-11-27T16:16:47.643Z,4.18
2022-11-27T16:19:15.799Z,3.72
2022-11-27T16:21:42.674Z,4.15
2022-11-27T16:24:12.236Z,4.75
2022-11-27T16:26:39.295Z,4.35
2022-11-27T16:29:07.034Z,4.40
2022-11-27T16:31:33.959Z,4.15
2022-11-27T16:34:00.747Z,3.60
2022-11-27T16:36:29.307Z,3.92
2022-11-27T16:38:56.716Z,3.53
2022-11-27T16:41:24.115Z,3.63
2022-11-27T16:43:54.190Z,4.03
2022-11-27T16:46:22.513Z,3.80
2022-11-27T16:48:49.964Z,3.60
2022-11-27T16:51:18.687Z,4.43
2022-11-27T16:53:48.403Z,4.10
2022-11-27T16:56:18.120Z,3.85
2022-11-27T16:58:47.006Z,4.20
2022-11-27T17:01:16.403Z,4.10
2022-11-27T17:03:43.738Z,4.55
2022-11-27T17:06:12.801Z,4.38
2022-11-27T17:08:40.251Z,4.40
2022-11-27T17:11:08.999Z,5.40
2022-11-27T17:13:36.242Z,6.00
2022-11-27T17:16:03.028Z,5.38
2022-11-27T17:18:29.888Z,4.55
2022-11-27T17:21:01.091Z,4.90
2022-11-27T17:23:27.818Z,4.70
2022-11-27T17:25:54.564Z,4.05
2022-11-27T17:28:22.696Z,4.45
2022-11-27T17:30:49.399Z,4.03
2022-11-27T17:33:16.142Z,3.88
2022-11-27T17:35:42.799Z,4.07
2022-11-27T17:38:09.531Z,3.78
2022-11-27T17:40:36.232Z,4.22
2022-11-27T17:43:02.991Z,4.32
2022-11-27T17:45:31.115Z,3.83
2022-11-27T17:47:57.968Z,3.80
2022-11-27T17:50:24.650Z,4.10
2022-11-27T17:52:52.608Z,3.85
2022-11-27T17:55:19.551Z,4.93
2022-11-27T17:57:46.240Z,4.65
2022-11-27T18:00:13.912Z,4.93
2022-11-27T18:02:42.035Z,4.45
2022-11-27T18:05:09.727Z,4.80
2022-11-27T18:07:36.792Z,4.30
2022-11-27T18:10:04.316Z,4.70
2022-11-27T18:12:31.038Z,4.38
2022-11-27T18:15:01.033Z,5.30
2022-11-27T18:17:28.368Z,4.65
2022-11-27T18:19:56.483Z,4.07
2022-11-27T18:22:23.273Z,4.82
2022-11-27T18:24:49.974Z,4.25
2022-11-27T18:27:16.879Z,4.45
2022-11-27T18:29:44.099Z,4.55
2022-11-27T18:32:12.289Z,4.47
2022-11-27T18:34:39.434Z,4.55
2022-11-27T18:37:08.301Z,5.32
2022-11-27T18:39:35.445Z,4.55
2022-11-27T18:42:02.416Z,5.30
2022-11-27T18:44:29.270Z,5.78
2022-11-27T18:46:55.997Z,6.03
2022-11-27T18:49:22.903Z,5.47
2022-11-27T18:51:49.825Z,6.20
2022-11-27T18:54:18.381Z,6.15
2022-11-27T18:56:45.260Z,5.85
2022-11-27T18:59:12.460Z,6.03
2022-11-27T19:01:42.617Z,6.22
2022-11-27T19:04:09.891Z,6.78
2022-11-27T19:06:37.848Z,7.10
2022-11-27T19:09:04.981Z,6.40
2022-11-27T19:11:33.131Z,7.03
2022-11-27T19:13:59.925Z,6.95
2022-11-27T19:16:28.723Z,7.30
2022-11-27T19:18:56.764Z,7.53
2022-11-27T19:21:25.678Z,6.72
2022-11-27T19:23:53.312Z,7.70
2022-11-27T19:26:22.811Z,7.50
2022-11-27T19:28:52.020Z,8.57
2022-11-27T19:31:19.405Z,8.98
2022-11-27T19:33:51.173Z,10.00
2022-11-27T19:36:17.855Z,9.38
2022-11-27T19:38:44.651Z,11.85
2022-11-27T19:41:13.934Z,14.98
2022-11-27T19:43:41.460Z,16.88
2022-11-27T19:46:15.087Z,15.60
2022-11-27T19:48:42.146Z,13.45
2022-11-27T19:51:08.939Z,13.57
2022-11-27T19:53:35.714Z,13.10
2022-11-27T19:56:02.632Z,12.40
2022-11-27T19:58:29.407Z,9.73
2022-11-27T20:01:05.175Z,10.13
2022-11-27T20:03:33.368Z,10.15
2022-11-27T20:06:05.582Z,10.63
2022-11-27T20:08:32.559Z,8.88
2022-11-27T20:10:59.517Z,7.95
2022-11-27T20:13:26.652Z,7.67
2022-11-27T20:15:53.501Z,6.97
2022-11-27T20:18:20.541Z,7.50
2022-11-27T20:20:48.716Z,7.97
2022-11-27T20:23:15.615Z,7.13
2022-11-27T20:25:42.623Z,7.10
2022-11-27T20:28:10.099Z,8.13
2022-11-27T20:30:37.523Z,8.10
2022-11-27T20:33:07.732Z,8.45
2022-11-27T20:35:35.314Z,9.98
2022-11-27T20:38:03.389Z,9.40
2022-11-27T20:40:30.112Z,10.98
2022-11-27T20:42:56.838Z,12.23
2022-11-27T20:45:23.555Z,12.88
2022-11-27T20:47:51.054Z,13.02
2022-11-27T20:50:17.880Z,12.67
2022-11-27T20:52:45.226Z,10.90
2022-11-27T20:55:13.499Z,11.43
2022-11-27T20:57:40.920Z,10.60
2022-11-27T21:00:11.274Z,10.55
2022-11-27T21:02:38.794Z,9.50
2022-11-27T21:05:06.060Z,8.63
2022-11-27T21:07:35.610Z,7.55
2022-11-27T21:10:02.381Z,6.90
2022-11-27T21:12:31.613Z,7.95
2022-11-27T21:14:58.301Z,8.80
2022-11-27T21:17:25.025Z,7.93
2022-11-27T21:19:51.795Z,7.57
2022-11-27T21:22:19.136Z,6.15
2022-11-27T21:24:49.986Z,6.93
2022-11-27T21:27:16.712Z,6.82
2022-11-27T21:29:44.871Z,7.60
2022-11-27T21:32:11.765Z,5.90
2022-11-27T21:34:39.408Z,6.63
2022-11-27T21:37:06.564Z,6.25
2022-11-27T21:39:33.208Z,6.82
2022-11-27T21:41:59.902Z,7.88
2022-11-27T21:44:26.608Z,8.10
2022-11-27T21:46:54.693Z,8.00
2022-11-27T21:49:21.695Z,8.23
2022-11-27T21:51:51.329Z,8.70
2022-11-27T21:54:18.177Z,8.40
2022-11-27T21:56:45.068Z,8.57
2022-11-27T21:59:14.237Z,9.00
2022-11-27T22:01:41.236Z,9.60
2022-11-27T22:04:09.398Z,9.88
2022-11-27T22:06:37.888Z,10.18
2022-11-27T22:09:09.245Z,10.57
2022-11-27T22:11:38.721Z,8.70
2022-11-27T22:14:07.289Z,9.93
2022-11-27T22:16:39.887Z,9.88
2022-11-27T22:19:12.456Z,8.95
2022-11-27T22:21:39.192Z,9.10
2022-11-27T22:24:06.598Z,10.82
2022-11-27T22:26:33.298Z,10.98
2022-11-27T22:29:00.102Z,11.80
2022-11-27T22:31:28.606Z,11.52
2022-11-27T22:33:56.212Z,10.73
2022-11-27T22:36:25.985Z,10.93
2022-11-27T22:38:54.820Z,10.30
2022-11-27T22:41:22.999Z,9.63
2022-11-27T22:43:50.088Z,9.55
2022-11-27T22:46:19.489Z,9.23
2022-11-27T22:48:46.665Z,8.48
2022-11-27T22:51:13.670Z,8.18
2022-11-27T22:53:41.805Z,7.87
2022-11-27T22:56:10.883Z,8.40
2022-11-27T22:58:41.369Z,9.10
2022-11-27T23:01:13.656Z,9.27
2022-11-27T23:03:40.426Z,10.40
2022-11-27T23:06:09.012Z,10.87
2022-11-27T23:08:35.656Z,10.27
2022-11-27T23:11:04.651Z,10.65
2022-11-27T23:13:31.390Z,9.55
2022-11-27T23:15:58.185Z,11.20
2022-11-27T23:18:24.850Z,10.33
2022-11-27T23:20:51.690Z,9.77
2022-11-27T23:23:18.400Z,10.15
2022-11-27T23:25:45.152Z,10.75
2022-11-27T23:28:13.372Z,10.55
2022-11-27T23:30:40.103Z,11.67
2022-11-27T23:33:06.811Z,11.95
2022-11-27T23:35:33.512Z,11.73
2022-11-27T23:38:00.242Z,10.90
2022-11-27T23:40:27.125Z,9.80
2022-11-27T23:42:53.815Z,9.00
2022-11-27T23:45:21.832Z,8.23
2022-11-27T23:47:48.517Z,9.05
2022-11-27T23:50:15.243Z,9.95
2022-11-27T23:52:41.933Z,9.88
2022-11-27T23:55:09.287Z,10.60
2022-11-27T23:57:36.051Z,9.57
